Time,TemperatureF,DewpointF,PressureIn,WindDirection,WindDirectionDegrees,WindSpeedMPH,WindSpeedGustMPH,Humidity,HourlyPrecipIn,Conditions,Clouds,dailyrainin,SoftwareType,DateUTC
2013-05-09 00:03:00,59.5,47.3,30.11,East,90,4.4,10.9,64,0.00,,,0.00,WUHU21636XXSP,2013-05-09 05:03:00,
2013-05-09 00:13:00,59.2,47.3,30.12,SE,135,4.4,9.6,65,0.00,,,0.00,WUHU21636XXSP,2013-05-09 05:13:00,
2013-05-09 00:23:00,58.8,47.8,30.12,East,90,4.6,4.6,67,0.00,,,0.00,WUHU21636XXSP,2013-05-09 05:23:00,
2013-05-09 00:33:00,58.8,48.6,30.12,NE,45,9.1,13.6,69,0.00,,,0.00,WUHU21636XXSP,2013-05-09 05:33:00,
2013-05-09 00:43:00,58.8,48.6,30.12,ENE,67,7.3,17.8,69,0.00,,,0.00,WUHU21636XXSP,2013-05-09 05:43:00,
2013-05-09 00:53:00,58.8,48.6,30.12,ENE,67,4.4,11.1,69,0.00,,,0.00,WUHU21636XXSP,2013-05-09 05:53:00,
2013-05-09 01:03:00,58.8,49.1,30.12,East,90,3.3,4.4,70,0.00,,,0.00,WUHU21636XXSP,2013-05-09 06:03:00,
2013-05-09 01:13:00,59.0,50.0,30.13,ENE,67,4.4,6.7,72,0.00,,,0.00,WUHU21636XXSP,2013-05-09 06:13:00,
2013-05-09 01:23:00,59.0,50.0,30.12,East,90,0.0,4.4,73,0.00,,,0.00,WUHU21636XXSP,2013-05-09 06:23:00,
2013-05-09 01:33:00,59.0,50.0,30.12,East,90,3.3,3.3,72,0.00,,,0.00,WUHU21636XXSP,2013-05-09 06:33:00,
2013-05-09 01:43:00,58.8,49.8,30.12,East,90,0.0,3.3,72,0.00,,,0.00,WUHU21636XXSP,2013-05-09 06:43:00,
2013-05-09 01:53:00,58.6,49.3,30.12,East,90,0.0,0.0,71,0.00,,,0.00,WUHU21636XXSP,2013-05-09 06:53:00,
2013-05-09 02:03:00,58.3,49.3,30.12,East,90,0.0,0.0,71,0.00,,,0.00,WUHU21636XXSP,2013-05-09 07:03:00,
2013-05-09 02:13:00,57.6,48.9,30.12,East,90,0.0,0.0,73,0.00,,,0.00,WUHU21636XXSP,2013-05-09 07:13:00,
2013-05-09 02:23:00,56.5,48.6,30.11,NE,45,4.4,4.6,75,0.00,,,0.00,WUHU21636XXSP,2013-05-09 07:23:00,
2013-05-09 02:33:00,55.9,48.7,30.11,NE,45,3.1,4.4,77,0.00,,,0.00,WUHU21636XXSP,2013-05-09 07:33:00,
2013-05-09 02:43:00,55.8,48.6,30.11,NE,45,3.3,4.0,78,0.00,,,0.00,WUHU21636XXSP,2013-05-09 07:43:00,
2013-05-09 02:53:00,55.8,48.9,30.11,NE,45,4.0,4.0,78,0.00,,,0.00,WUHU21636XXSP,2013-05-09 07:53:00,
2013-05-09 03:03:00,55.8,48.6,30.12,NNE,22,3.1,5.3,77,0.00,,,0.00,WUHU21636XXSP,2013-05-09 08:03:00,
2013-05-09 03:13:00,55.2,47.3,30.12,NNE,22,3.3,8.5,75,0.00,,,0.00,WUHU21636XXSP,2013-05-09 08:13:00,
2013-05-09 03:23:00,55.0,47.1,30.12,NNE,22,7.1,7.1,75,0.00,,,0.00,WUHU21636XXSP,2013-05-09 08:23:00,
2013-05-09 03:33:00,54.7,46.4,30.12,NNE,22,5.3,9.8,74,0.00,,,0.00,WUHU21636XXSP,2013-05-09 08:33:00,
2013-05-09 03:44:00,54.7,46.4,30.12,NNE,22,5.5,10.5,74,0.00,,,0.00,WUHU21636XXSP,2013-05-09 08:44:00,
2013-05-09 03:54:00,54.5,45.9,30.13,NE,45,4.2,5.5,73,0.00,,,0.00,WUHU21636XXSP,2013-05-09 08:54:00,
2013-05-09 04:04:00,54.1,45.5,30.13,NNE,22,3.3,9.1,73,0.00,,,0.00,WUHU21636XXSP,2013-05-09 09:04:00,
2013-05-09 04:14:00,54.0,45.3,30.14,NNE,22,5.3,8.5,73,0.00,,,0.00,WUHU21636XXSP,2013-05-09 09:14:00,
2013-05-09 04:24:00,54.0,45.0,30.14,NNE,22,2.6,8.9,72,0.00,,,0.00,WUHU21636XXSP,2013-05-09 09:24:00,
2013-05-09 04:34:00,53.8,44.8,30.14,NNE,22,3.3,5.1,72,0.00,,,0.00,WUHU21636XXSP,2013-05-09 09:34:00,
2013-05-09 04:44:00,53.8,44.4,30.14,NNE,22,5.5,5.5,71,0.00,,,0.00,WUHU21636XXSP,2013-05-09 09:44:00,
2013-05-09 04:54:00,53.8,44.4,30.14,NNE,22,4.4,5.5,71,0.00,,,0.00,WUHU21636XXSP,2013-05-09 09:54:00,
2013-05-09 05:04:00,54.0,44.6,30.14,NNE,22,2.4,4.4,71,0.00,,,0.00,WUHU21636XXSP,2013-05-09 10:04:00,
2013-05-09 05:14:00,53.8,44.4,30.13,NNE,22,4.4,7.1,71,0.00,,,0.00,WUHU21636XXSP,2013-05-09 10:14:00,
2013-05-09 05:24:00,53.4,44.2,30.13,NNE,22,1.7,4.9,71,0.00,,,0.00,WUHU21636XXSP,2013-05-09 10:24:00,
2013-05-09 05:34:00,52.9,44.1,30.13,North,0,4.9,6.7,72,0.00,,,0.00,WUHU21636XXSP,2013-05-09 10:34:00,
2013-05-09 05:44:00,52.5,44.1,30.14,North,0,4.0,12.3,73,0.00,,,0.00,WUHU21636XXSP,2013-05-09 10:44:00,
2013-05-09 05:54:00,52.5,44.4,30.14,NNE,22,3.3,12.5,74,0.00,,,0.00,WUHU21636XXSP,2013-05-09 10:54:00,
2013-05-09 06:04:00,52.3,44.2,30.14,NNE,22,9.6,11.6,74,0.00,,,0.00,WUHU21636XXSP,2013-05-09 11:04:00,
2013-05-09 06:14:00,52.2,44.1,30.14,NNE,22,0.0,9.6,74,0.00,,,0.00,WUHU21636XXSP,2013-05-09 11:14:00,
2013-05-09 06:24:00,52.3,44.2,30.15,NNE,22,3.5,3.5,74,0.00,,,0.00,WUHU21636XXSP,2013-05-09 11:24:00,
2013-05-09 06:34:00,52.0,44.2,30.15,NNE,22,0.2,4.6,75,0.00,,,0.00,WUHU21636XXSP,2013-05-09 11:34:00,
2013-05-09 06:44:00,52.0,44.6,30.15,North,0,6.0,6.4,76,0.00,,,0.00,WUHU21636XXSP,2013-05-09 11:44:00,
2013-05-09 06:54:00,52.0,44.6,30.15,NNE,22,3.3,11.4,76,0.00,,,0.00,WUHU21636XXSP,2013-05-09 11:54:00,
2013-05-09 07:04:00,51.4,44.4,30.16,North,0,8.0,15.8,77,0.00,,,0.00,WUHU21636XXSP,2013-05-09 12:04:00,
2013-05-09 07:14:00,51.4,45.1,30.16,North,0,8.9,18.5,79,0.00,,,0.00,WUHU21636XXSP,2013-05-09 12:14:00,
2013-05-09 07:24:00,51.4,45.1,30.16,North,0,5.1,20.1,79,0.00,,,0.00,WUHU21636XXSP,2013-05-09 12:24:00,
2013-05-09 07:34:00,52.0,46.0,30.16,NNE,22,0.0,13.1,80,0.00,,,0.00,WUHU21636XXSP,2013-05-09 12:34:00,
2013-05-09 07:44:00,52.2,46.2,30.16,NNE,22,6.9,12.5,80,0.00,,,0.00,WUHU21636XXSP,2013-05-09 12:44:00,
2013-05-09 07:54:00,52.5,46.6,30.16,North,0,10.9,22.5,80,0.00,,,0.00,WUHU21636XXSP,2013-05-09 12:54:00,
2013-05-09 08:04:00,52.9,46.9,30.17,NNE,22,1.5,11.8,80,0.00,,,0.00,WUHU21636XXSP,2013-05-09 13:04:00,
2013-05-09 08:14:00,53.2,47.3,30.17,NNE,22,5.1,11.1,80,0.00,,,0.00,WUHU21636XXSP,2013-05-09 13:14:00,
2013-05-09 08:24:00,53.2,47.3,30.18,NNE,22,5.8,16.1,80,0.00,,,0.00,WUHU21636XXSP,2013-05-09 13:24:00,
2013-05-09 08:34:00,53.4,47.5,30.19,NNE,22,8.7,15.6,80,0.00,,,0.00,WUHU21636XXSP,2013-05-09 13:34:00,
2013-05-09 08:44:00,53.6,47.7,30.19,NNE,22,6.4,15.8,80,0.00,,,0.00,WUHU21636XXSP,2013-05-09 13:44:00,
2013-05-09 08:54:00,53.6,47.7,30.19,NE,45,4.2,18.7,80,0.00,,,0.00,WUHU21636XXSP,2013-05-09 13:54:00,
2013-05-09 09:04:00,53.8,47.7,30.20,NE,45,3.1,14.3,80,0.00,,,0.00,WUHU21636XXSP,2013-05-09 14:04:00,
2013-05-09 09:14:00,53.8,47.7,30.20,NE,45,5.3,10.0,80,0.00,,,0.00,WUHU21636XXSP,2013-05-09 14:14:00,
2013-05-09 09:24:00,54.1,48.0,30.20,NE,45,5.5,14.0,80,0.00,,,0.00,WUHU21636XXSP,2013-05-09 14:24:00,
2013-05-09 09:34:00,54.1,48.4,30.20,NNE,22,4.4,15.2,81,0.00,,,0.00,WUHU21636XXSP,2013-05-09 14:34:00,
2013-05-09 09:44:00,54.3,48.6,30.20,NE,45,6.7,14.0,81,0.00,,,0.00,WUHU21636XXSP,2013-05-09 14:44:00,
2013-05-09 09:54:00,54.3,48.6,30.21,NE,45,6.2,18.7,81,0.00,,,0.00,WUHU21636XXSP,2013-05-09 14:54:00,
2013-05-09 10:04:00,54.3,48.6,30.21,NE,45,4.4,16.3,81,0.00,,,0.00,WUHU21636XXSP,2013-05-09 15:04:00,
2013-05-09 10:14:00,54.7,48.9,30.21,NNE,22,8.5,13.6,81,0.00,,,0.00,WUHU21636XXSP,2013-05-09 15:14:00,
2013-05-09 10:24:00,55.2,49.3,30.21,North,0,3.8,15.4,81,0.00,,,0.00,WUHU21636XXSP,2013-05-09 15:24:00,
2013-05-09 10:34:00,56.1,49.6,30.21,ENE,67,4.0,18.1,79,0.00,,,0.00,WUHU21636XXSP,2013-05-09 15:34:00,
2013-05-09 10:44:00,56.3,49.5,30.22,NNE,22,3.5,18.7,78,0.00,,,0.00,WUHU21636XXSP,2013-05-09 15:44:00,
2013-05-09 10:54:00,56.3,50.2,30.23,NNE,22,6.7,18.1,80,0.00,,,0.00,WUHU21636XXSP,2013-05-09 15:54:00,
2013-05-09 11:04:00,55.9,50.0,30.22,NNE,22,8.7,16.3,81,0.00,,,0.00,WUHU21636XXSP,2013-05-09 16:04:00,
2013-05-09 11:14:00,56.5,50.5,30.23,NNE,22,8.7,18.1,81,0.00,,,0.00,WUHU21636XXSP,2013-05-09 16:14:00,
2013-05-09 11:24:00,57.4,50.5,30.22,NNE,22,7.8,18.1,78,0.00,,,0.00,WUHU21636XXSP,2013-05-09 16:24:00,
2013-05-09 11:34:00,57.9,50.7,30.23,North,0,8.7,18.1,77,0.00,,,0.00,WUHU21636XXSP,2013-05-09 16:34:00,
2013-05-09 11:44:00,58.3,51.1,30.22,NE,45,4.0,17.0,77,0.00,,,0.00,WUHU21636XXSP,2013-05-09 16:44:00,
2013-05-09 11:54:00,59.0,51.1,30.23,NNE,22,4.9,15.6,75,0.00,,,0.00,WUHU21636XXSP,2013-05-09 16:54:00,
2013-05-09 12:04:00,59.4,51.1,30.22,North,0,2.4,14.0,74,0.00,,,0.00,WUHU21636XXSP,2013-05-09 17:04:00,
2013-05-09 12:14:00,59.7,50.7,30.22,NE,45,5.8,17.2,72,0.00,,,0.00,WUHU21636XXSP,2013-05-09 17:14:00,
2013-05-09 12:24:00,60.4,51.1,30.22,NNE,22,6.4,13.4,71,0.00,,,0.00,WUHU21636XXSP,2013-05-09 17:24:00,
2013-05-09 12:34:00,61.3,51.4,30.22,NE,45,3.5,20.3,70,0.00,,,0.00,WUHU21636XXSP,2013-05-09 17:34:00,
2013-05-09 12:44:00,62.2,51.8,30.21,ENE,67,8.2,17.4,69,0.00,,,0.00,WUHU21636XXSP,2013-05-09 17:44:00,
2013-05-09 12:54:00,63.1,51.1,30.21,NNE,22,13.8,19.9,65,0.00,,,0.00,WUHU21636XXSP,2013-05-09 17:54:00,
2013-05-09 13:04:00,63.1,51.4,30.21,NE,45,6.7,19.6,66,0.00,,,0.00,WUHU21636XXSP,2013-05-09 18:04:00,
2013-05-09 13:14:00,64.0,50.5,30.21,ENE,67,10.9,22.5,62,0.00,,,0.00,WUHU21636XXSP,2013-05-09 18:14:00,
2013-05-09 13:24:00,63.7,50.7,30.21,North,0,4.2,20.8,63,0.00,,,0.00,WUHU21636XXSP,2013-05-09 18:24:00,
2013-05-09 13:34:00,63.0,50.0,30.21,NE,45,14.3,21.4,63,0.00,,,0.00,WUHU21636XXSP,2013-05-09 18:34:00,
2013-05-09 13:44:00,61.3,49.8,30.22,NE,45,16.3,25.2,66,0.00,,,0.00,WUHU21636XXSP,2013-05-09 18:44:00,
2013-05-09 13:54:00,60.6,52.0,30.22,NNE,22,8.7,23.9,73,0.00,,,0.00,WUHU21636XXSP,2013-05-09 18:54:00,
2013-05-09 14:04:00,59.7,52.2,30.23,NNE,22,17.2,23.7,76,0.00,,,0.00,WUHU21636XXSP,2013-05-09 19:04:00,
2013-05-09 14:14:00,59.4,51.4,30.23,NNE,22,10.5,26.3,75,0.00,,,0.00,WUHU21636XXSP,2013-05-09 19:14:00,
2013-05-09 14:24:00,59.0,51.4,30.23,NE,45,8.9,22.8,76,0.00,,,0.00,WUHU21636XXSP,2013-05-09 19:24:00,
2013-05-09 14:34:00,58.8,51.3,30.23,NE,45,7.8,20.3,76,0.00,,,0.00,WUHU21636XXSP,2013-05-09 19:34:00,
2013-05-09 14:44:00,58.8,50.9,30.23,ENE,67,4.0,20.3,75,0.00,,,0.00,WUHU21636XXSP,2013-05-09 19:44:00,
2013-05-09 14:54:00,59.5,50.9,30.23,NNE,22,5.1,15.8,73,0.00,,,0.00,WUHU21636XXSP,2013-05-09 19:54:00,
2013-05-09 15:04:00,59.9,50.9,30.22,NNE,22,5.8,19.0,72,0.00,,,0.00,WUHU21636XXSP,2013-05-09 20:04:00,
2013-05-09 15:14:00,60.1,50.7,30.22,North,0,9.6,21.0,70,0.00,,,0.00,WUHU21636XXSP,2013-05-09 20:14:00,
2013-05-09 15:24:00,60.6,51.3,30.22,North,0,14.0,21.6,71,0.00,,,0.00,WUHU21636XXSP,2013-05-09 20:24:00,
2013-05-09 15:34:00,61.3,50.7,30.22,NE,45,6.9,14.5,68,0.00,,,0.00,WUHU21636XXSP,2013-05-09 20:34:00,
2013-05-09 15:44:00,62.2,51.1,30.21,NNE,22,10.0,20.3,67,0.00,,,0.00,WUHU21636XXSP,2013-05-09 20:44:00,
2013-05-09 15:54:00,61.9,49.8,30.21,NNE,22,8.0,23.4,65,0.00,,,0.00,WUHU21636XXSP,2013-05-09 20:54:00,
2013-05-09 16:04:00,61.9,50.7,30.21,ENE,67,7.8,18.5,67,0.00,,,0.00,WUHU21636XXSP,2013-05-09 21:04:00,
2013-05-09 16:14:00,62.4,51.6,30.21,ENE,67,3.1,17.8,68,0.00,,,0.00,WUHU21636XXSP,2013-05-09 21:14:00,
2013-05-09 16:24:00,62.2,52.7,30.21,NE,45,7.6,17.0,71,0.00,,,0.00,WUHU21636XXSP,2013-05-09 21:24:00,
2013-05-09 16:34:00,63.3,54.9,30.21,NE,45,8.7,17.4,74,0.00,,,0.00,WUHU21636XXSP,2013-05-09 21:34:00,
2013-05-09 16:44:00,63.5,51.8,30.21,East,90,9.6,25.2,66,0.00,,,0.00,WUHU21636XXSP,2013-05-09 21:44:00,
2013-05-09 16:54:00,61.5,52.3,30.21,NE,45,5.5,21.6,72,0.00,,,0.00,WUHU21636XXSP,2013-05-09 21:54:00,
2013-05-09 17:04:00,60.6,53.4,30.21,NE,45,10.5,19.2,77,0.00,,,0.00,WUHU21636XXSP,2013-05-09 22:04:00,
2013-05-09 17:14:00,60.4,52.9,30.21,ENE,67,5.8,17.0,76,0.00,,,0.00,WUHU21636XXSP,2013-05-09 22:14:00,
2013-05-09 17:24:00,60.4,53.2,30.21,ENE,67,5.3,12.5,77,0.00,,,0.00,WUHU21636XXSP,2013-05-09 22:24:00,
2013-05-09 17:34:00,61.3,52.9,30.21,ENE,67,8.2,17.2,74,0.00,,,0.00,WUHU21636XXSP,2013-05-09 22:34:00,
2013-05-09 17:44:00,61.3,51.8,30.21,ENE,67,3.8,18.1,71,0.00,,,0.00,WUHU21636XXSP,2013-05-09 22:44:00,
2013-05-09 17:54:00,61.2,50.5,30.21,ENE,67,8.7,19.6,68,0.00,,,0.00,WUHU21636XXSP,2013-05-09 22:54:00,
2013-05-09 18:04:00,61.3,50.2,30.21,NE,45,7.6,19.0,67,0.00,,,0.00,WUHU21636XXSP,2013-05-09 23:04:00,
2013-05-09 18:14:00,61.5,50.4,30.21,East,90,5.3,17.4,67,0.00,,,0.00,WUHU21636XXSP,2013-05-09 23:14:00,
2013-05-09 18:24:00,62.4,51.3,30.21,NE,45,3.1,18.3,67,0.00,,,0.00,WUHU21636XXSP,2013-05-09 23:24:00,
2013-05-09 18:34:00,63.1,51.4,30.22,East,90,3.8,18.1,66,0.00,,,0.00,WUHU21636XXSP,2013-05-09 23:34:00,
2013-05-09 18:44:00,62.8,50.7,30.22,ENE,67,5.8,12.5,65,0.00,,,0.00,WUHU21636XXSP,2013-05-09 23:44:00,
2013-05-09 18:54:00,62.8,51.1,30.21,East,90,2.4,11.8,66,0.00,,,0.00,WUHU21636XXSP,2013-05-09 23:54:00,
2013-05-09 19:04:00,62.4,50.0,30.22,ENE,67,8.0,15.2,64,0.00,,,0.00,WUHU21636XXSP,2013-05-10 00:04:00,
2013-05-09 19:14:00,62.2,50.2,30.22,ENE,67,3.3,12.7,65,0.00,,,0.00,WUHU21636XXSP,2013-05-10 00:14:00,
2013-05-09 19:24:00,61.9,49.5,30.22,ENE,67,6.0,18.7,64,0.00,,,0.00,WUHU21636XXSP,2013-05-10 00:24:00,
2013-05-09 19:34:00,61.7,49.8,30.23,ENE,67,7.6,13.6,65,0.00,,,0.00,WUHU21636XXSP,2013-05-10 00:34:00,
2013-05-09 19:44:00,61.3,49.8,30.23,ENE,67,3.3,15.2,66,0.00,,,0.00,WUHU21636XXSP,2013-05-10 00:44:00,
2013-05-09 19:54:00,60.8,49.3,30.23,ENE,67,7.6,10.9,66,0.00,,,0.00,WUHU21636XXSP,2013-05-10 00:54:00,
2013-05-09 20:04:00,60.4,49.5,30.23,ENE,67,4.9,10.2,67,0.00,,,0.00,WUHU21636XXSP,2013-05-10 01:04:00,
2013-05-09 20:14:00,60.4,49.5,30.23,ENE,67,4.4,8.9,67,0.00,,,0.00,WUHU21636XXSP,2013-05-10 01:14:00,
2013-05-09 20:24:00,60.1,49.5,30.23,East,90,4.4,8.9,68,0.00,,,0.00,WUHU21636XXSP,2013-05-10 01:24:00,
2013-05-09 20:34:00,59.7,49.1,30.23,ESE,112,4.2,6.4,68,0.00,,,0.00,WUHU21636XXSP,2013-05-10 01:34:00,
2013-05-09 20:44:00,59.5,48.9,30.24,East,90,4.0,4.6,68,0.00,,,0.00,WUHU21636XXSP,2013-05-10 01:44:00,
2013-05-09 20:54:00,59.0,48.7,30.24,East,90,3.5,6.7,69,0.00,,,0.00,WUHU21636XXSP,2013-05-10 01:54:00,
2013-05-09 21:04:00,59.0,48.7,30.24,East,90,3.1,3.5,69,0.00,,,0.00,WUHU21636XXSP,2013-05-10 02:04:00,
2013-05-09 21:14:00,58.6,48.4,30.24,East,90,1.7,4.6,69,0.00,,,0.00,WUHU21636XXSP,2013-05-10 02:14:00,
2013-05-09 21:25:00,58.3,48.6,30.24,East,90,3.3,3.3,70,0.00,,,0.00,WUHU21636XXSP,2013-05-10 02:25:00,
2013-05-09 21:35:00,58.1,48.4,30.24,East,90,0.0,2.6,70,0.00,,,0.00,WUHU21636XXSP,2013-05-10 02:35:00,
2013-05-09 21:45:00,57.9,48.2,30.25,East,90,0.0,0.0,70,0.00,,,0.00,WUHU21636XXSP,2013-05-10 02:45:00,
2013-05-09 21:55:00,57.4,47.7,30.25,East,90,0.0,0.0,70,0.00,,,0.00,WUHU21636XXSP,2013-05-10 02:55:00,
2013-05-09 22:05:00,57.0,47.7,30.26,East,90,0.0,0.0,71,0.00,,,0.00,WUHU21636XXSP,2013-05-10 03:05:00,
2013-05-09 22:15:00,56.8,47.5,30.27,East,90,0.0,0.0,71,0.00,,,0.00,WUHU21636XXSP,2013-05-10 03:15:00,
2013-05-09 22:25:00,56.7,47.3,30.27,East,90,0.0,0.0,71,0.00,,,0.00,WUHU21636XXSP,2013-05-10 03:25:00,
2013-05-09 22:35:00,56.5,47.1,30.27,East,90,0.0,0.0,71,0.00,,,0.00,WUHU21636XXSP,2013-05-10 03:35:00,
2013-05-09 22:45:00,56.3,46.9,30.27,East,90,0.0,0.0,71,0.00,,,0.00,WUHU21636XXSP,2013-05-10 03:45:00,
2013-05-09 22:55:00,56.1,47.1,30.27,East,90,0.0,0.0,72,0.00,,,0.00,WUHU21636XXSP,2013-05-10 03:55:00,
2013-05-09 23:05:00,55.8,46.8,30.27,East,90,0.0,0.0,72,0.00,,,0.00,WUHU21636XXSP,2013-05-10 04:05:00,
2013-05-09 23:15:00,55.2,46.2,30.27,East,90,0.0,0.0,72,0.00,,,0.00,WUHU21636XXSP,2013-05-10 04:15:00,
2013-05-09 23:25:00,55.0,46.0,30.27,East,90,0.0,0.0,73,0.00,,,0.00,WUHU21636XXSP,2013-05-10 04:25:00,
2013-05-09 23:35:00,54.7,46.0,30.27,East,90,0.0,0.0,73,0.00,,,0.00,WUHU21636XXSP,2013-05-10 04:35:00,
2013-05-09 23:45:00,54.7,46.0,30.27,East,90,0.0,0.0,74,0.00,,,0.00,WUHU21636XXSP,2013-05-10 04:45:00,
2013-05-09 23:55:00,54.5,46.2,30.27,East,90,0.0,0.0,74,0.00,,,0.00,WUHU21636XXSP,2013-05-10 04:55:00,